This is the latest recevied weather packets stored in our database for station/object YBBN. If no packets are shown the sender has not sent any weather packets the latest 10 day(s).
| Time | Temp. | Humidity | Pressure | Rain* | Wind** | Luminosity | Snow |
|---|---|---|---|---|---|---|---|
| 1787879028 | 21.67° C | 56% | 1027 hPa | - | - | - | - |
| 1787878429 | 21.67° C | 56% | 1027 hPa | - | - | - | - |
| 1787877826 | 21.67° C | 56% | 1027 hPa | - | - | - | - |
| 1787877225 | 20.56° C | 60% | 1014 hPa | - | - | - | - |
| 1787876627 | 20.56° C | 60% | 1014 hPa | - | - | - | - |
| 1787876025 | 20.56° C | 60% | 1014 hPa | - | - | - | - |
| 1787875429 | 20° C | 64% | 1027 hPa | - | - | - | - |
| 1787874830 | 20° C | 64% | 1027 hPa | - | - | - | - |
| 1787874228 | 20° C | 64% | 1027 hPa | - | - | - | - |
| 1787873628 | 20° C | 68% | 1027 hPa | - | - | - | - |
| 1787873029 | 20° C | 68% | 1027 hPa | - | - | - | - |
| 1787872427 | 20° C | 68% | 1027 hPa | - | - | - | - |
| 1787871829 | 18.89° C | 72% | 1027 hPa | - | - | - | - |
| 1787871231 | 18.89° C | 72% | 1027 hPa | - | - | - | - |
| 1787870625 | 18.89° C | 72% | 1027 hPa | - | - | - | - |
| 1787870029 | 17.78° C | 77% | 1027 hPa | - | - | - | - |
| 1787869426 | 17.78° C | 77% | 1027 hPa | - | - | - | - |
| 1787868828 | 17.78° C | 77% | 1027 hPa | - | - | - | - |
| 1787868232 | 16.67° C | 88% | 1027 hPa | - | - | - | - |
| 1787867626 | 16.67° C | 88% | 1027 hPa | - | - | - | - |
| 1787867029 | 16.67° C | 88% | 1027 hPa | - | - | - | - |
| 1787866426 | 15.56° C | 87% | 1026 hPa | - | - | - | - |
| 1787865827 | 15.56° C | 87% | 1026 hPa | - | - | - | - |
| 1787865226 | 15.56° C | 87% | 1026 hPa | - | - | - | - |
| 1787864626 | 15° C | 93% | 1026 hPa | - | - | - | - |
* Rain since midnight (hover to see other rain measurements)
** Current wind speed in m/s (hover to see current wind gust speed)